Time;durP1;ratioP1;P1;durP2;ratioP2;P2;SDS_P1;SDS_P2;PMS_P1;PMS_P2;Temp;Humidity;BMP_temperature;BMP_pressure;BME280_temperature;BME280_humidity;BME280_pressure;Samples;Min_cycle;Max_cycle;Signal;HPM_P1;HPM_P2
2023/03/26 00:00:39;;;;;;;10.07;2.05;;;;;;;4.71;54.99;100372.03;5044480;28;20083;-75
2023/03/26 00:03:05;;;;;;;7.85;0.95;;;;;;;4.42;55.72;100371.81;5034240;28;20044;-73
2023/03/26 00:05:31;;;;;;;13.60;1.00;;;;;;;4.58;55.17;100377.47;5035651;28;20075;-72
2023/03/26 00:07:57;;;;;;;9.00;2.08;;;;;;;5.04;53.82;100380.75;5030493;28;20060;-72
2023/03/26 00:10:24;;;;;;;10.82;0.68;;;;;;;5.23;53.55;100383.72;5044410;28;20032;-68
2023/03/26 00:12:50;;;;;;;7.15;0.73;;;;;;;5.01;54.10;100386.00;5025644;28;20148;-71
2023/03/26 00:15:15;;;;;;;5.22;0.90;;;;;;;4.86;54.11;100387.22;5033164;28;20490;-71
2023/03/26 00:17:41;;;;;;;9.93;1.13;;;;;;;4.89;53.95;100392.34;5031902;28;20041;-72
2023/03/26 00:20:07;;;;;;;6.80;0.60;;;;;;;5.15;53.07;100381.34;5046188;28;20041;-72
2023/03/26 00:22:33;;;;;;;4.38;1.33;;;;;;;5.36;53.05;100392.03;5028930;28;20488;-71
2023/03/26 00:25:00;;;;;;;7.55;0.80;;;;;;;5.15;52.73;100383.94;5046607;28;20040;-71
2023/03/26 00:27:26;;;;;;;8.52;0.55;;;;;;;4.89;52.88;100401.84;5028283;28;20036;-72
2023/03/26 00:29:55;;;;;;;4.78;0.50;;;;;;;4.67;53.16;100402.31;5047598;28;20074;-72
2023/03/26 00:32:20;;;;;;;4.43;0.40;;;;;;;4.55;52.57;100403.44;5040800;28;20044;-71
2023/03/26 00:34:46;;;;;;;6.55;0.50;;;;;;;4.43;51.32;100406.28;5047180;28;20028;-71
2023/03/26 00:37:13;;;;;;;6.57;0.50;;;;;;;4.24;50.27;100405.84;5041403;28;20526;-71
2023/03/26 00:39:38;;;;;;;3.35;0.20;;;;;;;4.58;49.26;100402.53;5032098;28;20028;-72
2023/03/26 00:42:06;;;;;;;4.82;0.30;;;;;;;4.76;48.99;100404.69;5044972;28;20500;-72
2023/03/26 00:44:34;;;;;;;6.07;0.20;;;;;;;4.59;48.95;100404.25;5018788;28;20074;-71
2023/03/26 00:46:59;;;;;;;4.65;0.30;;;;;;;4.77;48.68;100408.16;5026839;28;20208;-71
2023/03/26 00:49:29;;;;;;;5.45;0.25;;;;;;;5.03;47.72;100410.13;5029892;28;20048;-71
2023/03/26 00:51:55;;;;;;;1.85;0.20;;;;;;;4.79;47.81;100407.22;5038397;28;20132;-70
2023/03/26 00:54:21;;;;;;;7.95;0.50;;;;;;;4.97;47.61;100411.16;5044391;28;20109;-71
2023/03/26 00:56:46;;;;;;;9.75;0.73;;;;;;;5.10;47.62;100408.25;5045774;28;20481;-74
2023/03/26 00:59:11;;;;;;;4.22;0.20;;;;;;;5.01;47.41;100409.31;5045882;28;20511;-75
2023/03/26 01:01:38;;;;;;;2.00;0.10;;;;;;;4.69;47.98;100415.22;5043637;28;20032;-75
2023/03/26 01:04:30;;;;;;;4.68;0.63;;;;;;;4.87;47.38;100419.13;5030321;28;20259;-73
2023/03/26 01:06:59;;;;;;;3.70;0.40;;;;;;;4.89;47.13;100418.22;5042698;28;20083;-74
2023/03/26 01:09:31;;;;;;;13.38;1.20;;;;;;;4.97;47.71;100428.44;5039073;28;20041;-73
2023/03/26 01:11:59;;;;;;;6.22;0.60;;;;;;;4.41;48.00;100429.63;5047976;28;20041;-73
2023/03/26 01:14:27;;;;;;;8.52;0.60;;;;;;;4.80;47.32;100428.78;5044496;28;20685;-75
2023/03/26 01:16:59;;;;;;;10.63;0.80;;;;;;;4.55;48.55;100433.66;5039450;28;20032;-73
2023/03/26 01:19:43;;;;;;;8.63;1.35;;;;;;;4.53;48.69;100427.66;5039092;28;20037;-74
2023/03/26 01:22:13;;;;;;;9.52;0.70;;;;;;;4.59;48.61;100420.63;5039128;28;20040;-74
2023/03/26 01:24:40;;;;;;;10.07;0.40;;;;;;;4.17;49.04;100422.38;5042593;28;20051;-75
2023/03/26 01:27:27;;;;;;;12.98;1.88;;;;;;;4.65;48.38;100429.97;5034571;28;20486;-75
2023/03/26 01:30:18;;;;;;;8.50;0.52;;;;;;;4.36;48.41;100426.31;5013920;28;20036;-74
2023/03/26 01:33:19;;;;;;;9.77;0.50;;;;;;;4.76;48.07;100421.97;5010485;28;20052;-75
2023/03/26 01:35:53;;;;;;;11.98;0.40;;;;;;;4.38;48.54;100427.09;4993437;28;20045;-73
2023/03/26 01:38:31;;;;;;;5.65;1.50;;;;;;;4.62;47.95;100430.03;5009576;28;20076;-73
2023/03/26 01:41:30;;;;;;;6.82;0.63;;;;;;;4.52;48.13;100423.34;5041654;28;20388;-73
2023/03/26 01:43:58;;;;;;;15.60;1.23;;;;;;;4.73;47.61;100428.06;5045262;28;20097;-73
2023/03/26 01:46:25;;;;;;;14.98;0.90;;;;;;;4.48;48.08;100432.09;5042410;28;20179;-72
2023/03/26 01:48:52;;;;;;;11.63;1.10;;;;;;;4.50;47.87;100432.88;5047309;28;20036;-73
2023/03/26 01:51:33;;;;;;;5.55;0.70;;;;;;;4.55;47.83;100418.13;5045326;28;20401;-73
2023/03/26 01:54:04;;;;;;;11.18;1.90;;;;;;;4.52;47.81;100419.06;5047921;28;20036;-73
2023/03/26 01:56:34;;;;;;;8.20;0.63;;;;;;;4.82;47.27;100420.09;5045081;28;20032;-73
2023/03/26 01:59:11;;;;;;;16.90;0.82;;;;;;;4.67;47.39;100417.84;5041347;28;20045;-72
2023/03/26 02:02:10;;;;;;;3.42;0.60;;;;;;;4.52;47.66;100423.34;5014243;28;20123;-73
2023/03/26 02:04:59;;;;;;;10.60;0.40;;;;;;;4.57;46.50;100421.53;5035882;28;20582;-72
2023/03/26 02:07:34;;;;;;;6.90;0.38;;;;;;;4.12;46.94;100424.19;5033950;28;20119;-72
2023/03/26 02:10:05;;;;;;;;;;;;;;;4.68;45.74;100423.91;5048069;28;20035;-73
2023/03/26 02:12:31;;;;;;;6.43;0.40;;;;;;;4.22;46.06;100423.13;5030162;28;19920;-73
2023/03/26 02:14:59;;;;;;;11.77;0.85;;;;;;;4.78;45.97;100423.63;5045794;28;20032;-73
2023/03/26 02:17:24;;;;;;;7.05;0.55;;;;;;;4.70;45.62;100417.78;5041910;28;20049;-73
2023/03/26 02:19:53;;;;;;;8.75;0.70;;;;;;;4.14;46.63;100417.25;5037747;28;20059;-73
2023/03/26 02:22:19;;;;;;;6.65;1.13;;;;;;;4.51;46.35;100422.50;5038056;28;20064;-72
2023/03/26 02:24:45;;;;;;;7.72;0.82;;;;;;;4.62;45.79;100417.09;5032052;28;20032;-73
2023/03/26 02:27:11;;;;;;;3.47;0.20;;;;;;;4.32;46.87;100427.25;5044648;28;20438;-73
2023/03/26 02:29:39;;;;;;;5.68;0.40;;;;;;;4.30;46.81;100421.25;5045845;28;20037;-73
2023/03/26 02:32:11;;;;;;;7.18;0.40;;;;;;;4.06;47.14;100416.59;5028466;28;20031;-73
2023/03/26 02:34:36;;;;;;;5.85;0.45;;;;;;;4.21;46.70;100411.09;5036474;28;20028;-73
2023/03/26 02:37:01;;;;;;;10.18;0.70;;;;;;;4.69;46.19;100410.91;5029056;28;20460;-73
2023/03/26 02:39:27;;;;;;;7.22;1.13;;;;;;;4.41;46.80;100406.34;5026735;28;20029;-73
2023/03/26 02:41:56;;;;;;;4.43;0.30;;;;;;;4.37;46.71;100415.06;5032117;28;20119;-73
2023/03/26 02:44:22;;;;;;;4.32;0.45;;;;;;;4.62;46.30;100405.00;5020012;28;20668;-76
2023/03/26 02:46:56;;;;;;;5.68;0.45;;;;;;;4.30;46.18;100410.91;5046992;28;20048;-77
2023/03/26 02:49:41;;;;;;;2.60;0.20;;;;;;;4.41;46.68;100408.09;5042760;28;20051;-76
2023/03/26 02:52:07;;;;;;;8.48;0.65;;;;;;;4.21;47.02;100408.50;5031475;28;20128;-75
2023/03/26 02:54:37;;;;;;;3.53;0.47;;;;;;;4.46;46.57;100408.00;5045543;28;20028;-76
2023/03/26 02:57:12;;;;;;;5.60;0.20;;;;;;;4.69;46.28;100408.31;5026358;28;20036;-76
2023/03/26 02:59:54;;;;;;;3.85;0.20;;;;;;;4.20;47.63;100411.97;5027957;28;20028;-73
2023/03/26 03:02:40;;;;;;;3.33;0.35;;;;;;;4.30;47.88;100418.66;5032668;28;20045;-73
2023/03/26 03:05:30;;;;;;;5.95;0.20;;;;;;;4.18;48.54;100416.31;5010422;28;20044;-73
2023/03/26 03:08:26;;;;;;;6.43;0.20;;;;;;;4.56;48.06;100417.22;5025944;28;20115;-68
2023/03/26 03:11:12;;;;;;;8.68;0.40;;;;;;;4.36;48.40;100417.66;5030481;28;20102;-68
2023/03/26 03:13:42;;;;;;;9.20;0.75;;;;;;;4.40;48.38;100412.38;5035010;28;20145;-67
2023/03/26 03:16:09;;;;;;;6.10;1.25;;;;;;;3.97;49.96;100410.72;5023696;28;20026;-68
2023/03/26 03:18:35;;;;;;;3.75;0.28;;;;;;;4.34;49.59;100417.72;5024790;28;20046;-67
2023/03/26 03:21:02;;;;;;;6.30;0.35;;;;;;;4.37;49.50;100409.88;5029606;28;20029;-67
2023/03/26 03:23:27;;;;;;;9.45;0.40;;;;;;;4.27;49.67;100408.38;5043739;28;20048;-74
2023/03/26 03:26:03;;;;;;;7.28;0.70;;;;;;;4.04;50.68;100411.44;5025395;28;20032;-72
2023/03/26 03:28:30;;;;;;;8.50;0.32;;;;;;;4.05;50.59;100410.56;5025661;28;20509;-71
2023/03/26 03:30:56;;;;;;;10.55;1.10;;;;;;;4.16;50.55;100407.75;5037279;28;20115;-72
2023/03/26 03:33:30;;;;;;;8.95;0.63;;;;;;;4.45;49.98;100399.34;5023452;28;20480;-73
2023/03/26 03:35:55;;;;;;;6.15;0.47;;;;;;;4.43;49.64;100394.22;5043861;28;20040;-74
2023/03/26 03:38:22;;;;;;;6.40;0.40;;;;;;;4.47;49.43;100396.72;5025416;28;20573;-74
2023/03/26 03:40:50;;;;;;;5.90;0.40;;;;;;;4.73;49.23;100384.06;5028061;28;20025;-74
2023/03/26 03:43:16;;;;;;;8.70;1.20;;;;;;;4.47;49.63;100401.91;5029100;28;20072;-75
2023/03/26 03:45:59;;;;;;;8.77;0.88;;;;;;;4.47;49.85;100399.31;5038570;28;20028;-81
2023/03/26 03:48:57;;;;;;;15.52;1.17;;;;;;;4.70;50.13;100398.78;5040451;28;20037;-81
2023/03/26 03:51:34;;;;;;;15.77;0.90;;;;;;;4.69;49.64;100403.13;5030622;28;20040;-74
2023/03/26 03:54:02;;;;;;;10.15;1.00;;;;;;;4.60;49.54;100411.09;5031539;28;20421;-71
2023/03/26 03:56:51;;;;;;;6.93;0.55;;;;;;;4.67;49.59;100397.13;5009016;28;20040;-74
2023/03/26 03:59:22;;;;;;;18.08;0.60;;;;;;;4.62;49.55;100401.56;5045798;28;20048;-75
2023/03/26 04:01:49;;;;;;;9.95;0.93;;;;;;;4.13;50.10;100402.63;5050398;28;20036;-74
2023/03/26 04:04:24;;;;;;;12.68;1.20;;;;;;;4.38;48.54;100403.81;5031845;28;20086;-74
2023/03/26 04:06:57;;;;;;;8.50;0.88;;;;;;;3.87;48.80;100398.81;5025489;28;20160;-74
2023/03/26 04:09:27;;;;;;;9.00;0.38;;;;;;;3.67;48.17;100404.41;5015424;28;20117;-74
2023/03/26 04:11:57;;;;;;;9.80;0.55;;;;;;;4.01;46.88;100406.34;5041396;28;20090;-71
2023/03/26 04:14:40;;;;;;;14.32;1.85;;;;;;;3.86;46.36;100401.47;5030666;28;20036;-72
2023/03/26 04:17:14;;;;;;;7.75;1.20;;;;;;;3.51;46.10;100416.72;5050854;28;20131;-72
2023/03/26 04:19:42;;;;;;;8.93;0.77;;;;;;;3.83;45.64;100407.56;5023925;28;20098;-72
2023/03/26 04:22:10;;;;;;;3.95;0.47;;;;;;;4.29;45.55;100416.09;5036204;28;20071;-72
2023/03/26 04:24:47;;;;;;;13.60;0.57;;;;;;;4.16;45.54;100410.31;5029440;28;20021;-75
2023/03/26 04:27:27;;;;;;;11.50;1.00;;;;;;;4.08;45.43;100414.81;5049480;28;20044;-74
2023/03/26 04:30:00;;;;;;;5.95;0.80;;;;;;;3.71;45.55;100413.78;5035695;28;20045;-72
2023/03/26 04:32:32;;;;;;;7.68;0.95;;;;;;;4.00;45.09;100410.63;5030495;28;20037;-73
2023/03/26 04:35:02;;;;;;;15.68;0.52;;;;;;;3.74;45.07;100412.91;5038696;28;20055;-71
2023/03/26 04:37:38;;;;;;;10.02;0.90;;;;;;;3.98;44.60;100409.84;5029594;28;20041;-70
2023/03/26 04:40:13;;;;;;;6.93;0.45;;;;;;;3.67;44.45;100416.47;5014614;28;20038;-70
2023/03/26 04:42:53;;;;;;;;;;;;;;;3.97;44.17;100415.88;5035875;28;20036;-70
2023/03/26 04:45:54;;;;;;;6.25;1.27;;;;;;;3.53;43.67;100403.78;5032716;28;20662;-70
2023/03/26 04:48:23;;;;;;;;;;;;;;;3.69;43.64;100410.38;5029758;28;20041;-69
2023/03/26 04:50:49;;;;;;;9.05;0.82;;;;;;;3.79;43.35;100400.72;5045977;28;19935;-75
2023/03/26 04:53:20;;;;;;;10.05;0.95;;;;;;;3.60;44.16;100405.38;5029125;28;20033;-72
2023/03/26 04:56:23;;;;;;;16.13;1.77;;;;;;;3.72;43.92;100400.00;5043782;28;20037;-73
2023/03/26 04:59:25;;;;;;;15.07;2.03;;;;;;;3.44;43.78;100404.81;5021264;28;20044;-74
2023/03/26 05:01:52;;;;;;;5.82;0.82;;;;;;;3.65;44.08;100413.03;5031411;28;20093;-73
2023/03/26 05:04:20;;;;;;;6.78;0.68;;;;;;;3.82;44.10;100420.50;5031375;28;20044;-73
2023/03/26 05:06:45;;;;;;;5.00;0.57;;;;;;;3.66;44.28;100414.78;5036659;28;20677;-73
2023/03/26 05:09:26;;;;;;;17.23;1.05;;;;;;;3.73;44.25;100412.03;5043359;28;20576;-74
2023/03/26 05:12:10;;;;;;;8.65;0.35;;;;;;;3.55;44.92;100418.38;5049551;28;20044;-73
2023/03/26 05:14:49;;;;;;;13.23;1.33;;;;;;;3.59;44.14;100411.44;5033709;28;20032;-73
2023/03/26 05:17:22;;;;;;;13.65;0.90;;;;;;;3.56;43.93;100409.78;5028010;28;20618;-75
2023/03/26 05:19:48;;;;;;;7.72;0.95;;;;;;;3.65;43.68;100419.09;5027792;28;20117;-76
2023/03/26 05:22:15;;;;;;;11.27;1.55;;;;;;;3.29;44.17;100415.41;5018211;28;20032;-76
2023/03/26 05:25:00;;;;;;;11.07;0.50;;;;;;;3.33;43.85;100417.06;5034166;28;20064;-75
2023/03/26 05:27:26;;;;;;;13.40;0.88;;;;;;;3.24;44.43;100412.03;5023993;28;20543;-75
2023/03/26 05:29:51;;;;;;;15.40;0.85;;;;;;;3.54;43.93;100421.88;5031207;28;20521;-73
2023/03/26 05:32:16;;;;;;;15.73;0.90;;;;;;;3.57;44.24;100411.47;5045819;28;20039;-73
2023/03/26 05:34:43;;;;;;;13.77;1.48;;;;;;;3.46;44.03;100423.72;5032890;28;20028;-74
2023/03/26 05:37:09;;;;;;;8.82;0.82;;;;;;;3.67;43.88;100426.78;5031116;28;20520;-73
2023/03/26 05:39:53;;;;;;;12.55;1.65;;;;;;;3.29;43.95;100420.56;5030115;28;20037;-73
2023/03/26 05:42:40;;;;;;;9.23;0.95;;;;;;;3.45;43.52;100427.19;5027175;28;20033;-70
2023/03/26 05:45:36;;;;;;;6.82;0.68;;;;;;;3.41;43.56;100424.69;5045154;28;20037;-68
2023/03/26 05:48:16;;;;;;;4.88;0.70;;;;;;;3.80;43.57;100430.84;5024870;28;20037;-70
2023/03/26 05:50:41;;;;;;;4.85;1.23;;;;;;;3.85;43.53;100425.59;5035066;28;20109;-71
2023/03/26 05:53:07;;;;;;;9.38;0.95;;;;;;;3.62;42.97;100432.06;5031963;28;20638;-69
2023/03/26 05:56:05;;;;;;;7.65;1.08;;;;;;;3.92;42.58;100422.88;4994884;28;20489;-71
2023/03/26 05:58:50;;;;;;;17.45;0.70;;;;;;;4.02;43.01;100424.38;5043294;28;20070;-70
2023/03/26 06:01:43;;;;;;;13.80;0.88;;;;;;;3.63;42.09;100418.28;5017509;28;20115;-68
2023/03/26 06:04:27;;;;;;;14.85;2.10;;;;;;;3.66;41.56;100420.78;5042676;28;20043;-71
2023/03/26 06:07:32;;;;;;;4.22;0.60;;;;;;;3.87;41.20;100418.66;5014716;28;20981;-68
2023/03/26 06:10:16;;;;;;;14.30;1.92;;;;;;;4.09;40.84;100424.28;5024370;28;20249;-72
2023/03/26 06:12:43;;;;;;;10.52;0.68;;;;;;;4.20;40.48;100424.91;5025772;28;20446;-72
2023/03/26 06:15:10;;;;;;;16.60;1.35;;;;;;;4.09;40.41;100419.94;5032504;28;20575;-72
2023/03/26 06:17:46;;;;;;;14.02;1.38;;;;;;;4.13;40.22;100419.00;5024945;28;20588;-72
2023/03/26 06:20:32;;;;;;;4.10;0.25;;;;;;;4.29;40.17;100414.34;5031162;28;20114;-69
2023/03/26 06:23:01;;;;;;;9.80;1.63;;;;;;;4.20;40.24;100410.22;5017348;28;20048;-70
2023/03/26 06:25:46;;;;;;;13.95;1.33;;;;;;;4.14;40.17;100412.09;5021933;28;20032;-70
2023/03/26 06:28:34;;;;;;;15.73;0.75;;;;;;;4.45;40.49;100412.28;5028925;28;20196;-70
2023/03/26 06:31:25;;;;;;;9.73;0.40;;;;;;;4.51;40.14;100414.75;5032081;28;20033;-70
2023/03/26 06:34:10;;;;;;;5.35;0.40;;;;;;;4.17;40.11;100412.88;5031797;28;20040;-70
2023/03/26 06:36:35;;;;;;;12.93;1.48;;;;;;;4.49;39.94;100418.25;5029071;28;20420;-68
2023/03/26 06:39:04;;;;;;;9.18;1.05;;;;;;;4.56;40.44;100417.22;5030368;28;20072;-71
2023/03/26 06:41:33;;;;;;;15.00;1.65;;;;;;;4.70;40.04;100412.63;5037697;28;20519;-71
2023/03/26 06:44:12;;;;;;;10.93;1.27;;;;;;;4.63;40.43;100422.25;5027260;28;20106;-69
2023/03/26 06:46:56;;;;;;;17.77;2.33;;;;;;;4.70;40.29;100422.97;5034656;28;20559;-71
2023/03/26 06:49:43;;;;;;;9.70;1.52;;;;;;;4.41;39.42;100424.47;4994997;28;20041;-72
2023/03/26 06:52:27;;;;;;;9.07;0.52;;;;;;;4.74;40.28;100422.00;5031778;28;20123;-72
2023/03/26 06:55:19;;;;;;;6.32;0.90;;;;;;;4.76;39.69;100416.78;5008326;28;20249;-71
2023/03/26 06:58:04;;;;;;;6.90;0.80;;;;;;;4.84;39.59;100422.66;5034392;28;20048;-71
2023/03/26 07:00:44;;;;;;;10.52;1.77;;;;;;;5.00;40.05;100417.97;5041008;28;20029;-70
2023/03/26 07:03:28;;;;;;;6.13;1.25;;;;;;;5.08;39.57;100428.16;5043460;28;20125;-71
2023/03/26 07:06:14;;;;;;;11.07;1.13;;;;;;;5.07;39.43;100429.91;5036662;28;20084;-71
2023/03/26 07:08:58;;;;;;;7.28;1.08;;;;;;;4.87;38.92;100430.34;5024550;28;20056;-70
2023/03/26 07:11:28;;;;;;;11.23;0.85;;;;;;;4.79;39.10;100429.69;5035465;28;20054;-71
2023/03/26 07:14:16;;;;;;;5.80;1.02;;;;;;;5.02;38.81;100426.56;5031986;28;20126;-70
2023/03/26 07:17:10;;;;;;;12.95;1.08;;;;;;;4.79;39.55;100420.16;5027732;28;20048;-70
2023/03/26 07:19:53;;;;;;;8.43;0.60;;;;;;;5.14;39.06;100417.66;5027749;28;20032;-71
2023/03/26 07:22:24;;;;;;;11.97;1.47;;;;;;;5.19;38.47;100416.66;5028255;28;20059;-70
2023/03/26 07:25:06;;;;;;;8.32;0.63;;;;;;;5.20;39.07;100413.16;5033302;28;20286;-70
2023/03/26 07:28:17;;;;;;;8.73;1.33;;;;;;;5.39;38.68;100412.69;4987282;28;20028;-71
2023/03/26 07:31:51;;;;;;;9.60;1.40;;;;;;;5.08;39.26;100418.66;4992943;28;20045;-70
2023/03/26 07:34:51;;;;;;;11.55;0.47;;;;;;;5.01;38.59;100417.09;5017649;28;20044;-70
2023/03/26 07:38:12;;;;;;;19.00;2.05;;;;;;;4.62;38.39;100419.69;4991319;28;20042;-70
2023/03/26 07:41:21;;;;;;;3.28;0.75;;;;;;;5.18;37.53;100412.34;5037581;28;20025;-70
2023/03/26 07:44:29;;;;;;;9.48;0.65;;;;;;;5.55;37.84;100411.41;5041734;28;20221;-70
2023/03/26 07:47:28;;;;;;;9.02;0.65;;;;;;;5.87;37.59;100409.69;5022635;28;20072;-70
2023/03/26 07:50:17;;;;;;;7.43;0.98;;;;;;;5.55;36.60;100413.16;5026448;28;20191;-70
2023/03/26 07:52:58;;;;;;;6.07;0.70;;;;;;;5.52;37.28;100413.22;5041353;28;20029;-71
2023/03/26 07:56:04;;;;;;;10.23;0.65;;;;;;;5.43;37.14;100414.31;5034030;28;20065;-70
2023/03/26 07:59:05;;;;;;;4.22;1.17;;;;;;;5.72;37.20;100410.09;5028757;28;20125;-71
2023/03/26 08:01:49;;;;;;;9.57;0.63;;;;;;;5.86;36.97;100414.03;5034831;28;20036;-69
2023/03/26 08:04:47;;;;;;;6.55;0.95;;;;;;;5.83;37.02;100413.25;5023859;28;20048;-70
2023/03/26 08:07:56;;;;;;;9.93;1.25;;;;;;;5.81;36.03;100415.03;5020134;28;20043;-69
2023/03/26 08:11:00;;;;;;;13.00;1.20;;;;;;;5.80;35.77;100408.16;5034662;28;20572;-71
2023/03/26 08:13:59;;;;;;;12.45;0.88;;;;;;;6.06;35.46;100415.19;5026463;28;20499;-70
2023/03/26 08:16:55;;;;;;;16.10;1.02;;;;;;;6.36;34.55;100412.66;4993099;28;20044;-71
2023/03/26 08:19:21;;;;;;;12.00;0.47;;;;;;;6.80;34.33;100407.84;5043224;28;20092;-70
2023/03/26 08:21:52;;;;;;;6.40;0.55;;;;;;;6.79;33.37;100401.78;5038791;28;20124;-70
2023/03/26 08:24:42;;;;;;;7.40;0.50;;;;;;;7.26;33.96;100404.56;5026941;28;20040;-70
2023/03/26 08:27:12;;;;;;;6.55;0.65;;;;;;;7.28;33.82;100407.13;5040911;28;20108;-71
2023/03/26 08:29:41;;;;;;;5.78;0.93;;;;;;;7.31;33.67;100407.00;5037860;28;20106;-71
2023/03/26 08:32:17;;;;;;;10.73;0.43;;;;;;;7.09;33.89;100407.75;5040729;28;20029;-71
2023/03/26 08:34:42;;;;;;;3.13;0.38;;;;;;;6.85;34.06;100409.38;5040719;28;20040;-71
2023/03/26 08:37:08;;;;;;;12.40;0.57;;;;;;;6.75;34.42;100420.94;5030575;28;20044;-72
2023/03/26 08:39:36;;;;;;;8.20;0.82;;;;;;;6.87;34.20;100423.19;5032640;28;20408;-70
2023/03/26 08:42:14;;;;;;;12.98;1.33;;;;;;;6.81;34.23;100425.97;5042155;28;20186;-71
2023/03/26 08:45:08;;;;;;;10.13;0.40;;;;;;;6.81;33.83;100425.97;5007002;28;20047;-72
2023/03/26 08:47:54;;;;;;;9.95;0.63;;;;;;;6.44;34.95;100428.84;5011185;28;20053;-72
2023/03/26 08:50:42;;;;;;;4.45;0.63;;;;;;;6.49;34.87;100430.41;5024798;28;20044;-71
2023/03/26 08:53:57;;;;;;;13.32;0.85;;;;;;;6.57;34.92;100437.13;5006180;28;20037;-70
2023/03/26 08:56:48;;;;;;;7.25;0.77;;;;;;;5.98;35.27;100433.59;5042759;28;20043;-70
2023/03/26 08:59:48;;;;;;;6.13;0.47;;;;;;;5.93;36.26;100435.47;5047888;28;20571;-69
2023/03/26 09:02:38;;;;;;;10.00;0.75;;;;;;;6.22;34.92;100433.78;5045033;28;20040;-70
2023/03/26 09:05:25;;;;;;;8.30;0.63;;;;;;;6.11;33.85;100433.25;5040486;28;21446;-69
2023/03/26 09:08:21;;;;;;;7.40;0.70;;;;;;;6.86;33.62;100442.28;5043169;28;20560;-71
2023/03/26 09:11:15;;;;;;;9.73;0.35;;;;;;;7.45;33.44;100435.19;5040545;28;20060;-69
2023/03/26 09:14:08;;;;;;;5.97;0.50;;;;;;;7.52;32.66;100434.91;5041597;28;20045;-70
2023/03/26 09:17:11;;;;;;;6.15;0.30;;;;;;;7.60;31.46;100439.88;5043989;28;20024;-69
2023/03/26 09:20:02;;;;;;;11.48;0.80;;;;;;;7.12;32.20;100443.19;5042987;28;20527;-71
2023/03/26 09:22:46;;;;;;;2.78;0.30;;;;;;;7.94;31.35;100446.50;5044214;28;20045;-70
2023/03/26 09:25:48;;;;;;;6.13;1.08;;;;;;;9.19;28.92;100429.59;5041876;28;20047;-71
2023/03/26 09:29:00;;;;;;;8.13;0.82;;;;;;;9.75;28.42;100428.94;5043650;28;21215;-70
2023/03/26 09:31:25;;;;;;;6.50;0.60;;;;;;;8.48;28.98;100428.91;5044520;28;20048;-71
2023/03/26 09:34:30;;;;;;;8.80;1.65;;;;;;;8.85;29.02;100425.75;5045457;28;20048;-71
2023/03/26 09:37:44;;;;;;;7.97;1.25;;;;;;;8.20;30.46;100436.88;4966673;28;20100;-72
2023/03/26 09:40:21;;;;;;;6.60;0.77;;;;;;;7.92;30.31;100440.50;5031526;28;20047;-71
2023/03/26 09:43:03;;;;;;;8.35;1.02;;;;;;;7.79;32.22;100440.09;5032823;28;20036;-71
2023/03/26 09:46:02;;;;;;;5.70;1.13;;;;;;;7.74;31.44;100442.84;5042854;28;20032;-71
2023/03/26 09:49:08;;;;;;;9.43;0.90;;;;;;;7.17;32.52;100446.47;5048671;28;20062;-71
2023/03/26 09:52:03;;;;;;;8.43;1.10;;;;;;;6.97;33.29;100443.66;5045969;28;20033;-71
2023/03/26 09:54:54;;;;;;;18.88;1.25;;;;;;;7.48;32.51;100437.66;5020503;28;20214;-71
2023/03/26 09:58:11;;;;;;;8.98;0.70;;;;;;;7.54;32.01;100437.47;5041872;28;20119;-71
2023/03/26 10:01:28;;;;;;;4.40;1.00;;;;;;;7.93;30.59;100439.59;5027495;28;20438;-72
2023/03/26 10:04:05;;;;;;;7.88;0.70;;;;;;;8.61;30.34;100442.31;4937164;28;20047;-72
2023/03/26 10:06:58;;;;;;;4.13;0.55;;;;;;;8.70;30.68;100436.72;4947625;28;20026;-71
2023/03/26 10:09:51;;;;;;;6.10;0.45;;;;;;;7.90;32.26;100444.91;5023893;28;20130;-71
2023/03/26 10:12:27;;;;;;;7.85;0.90;;;;;;;8.23;32.13;100444.59;5042244;28;20036;-71
2023/03/26 10:15:10;;;;;;;7.75;0.40;;;;;;;7.92;31.39;100448.31;5046169;28;20020;-72
2023/03/26 10:17:41;;;;;;;5.50;1.63;;;;;;;7.35;33.30;100450.22;5018100;28;20044;-72
2023/03/26 10:20:23;;;;;;;10.05;0.50;;;;;;;7.52;32.35;100454.88;5026388;28;20097;-72
2023/03/26 10:23:10;;;;;;;6.30;0.50;;;;;;;7.24;31.93;100450.56;5044943;28;20490;-72
2023/03/26 10:25:57;;;;;;;11.38;0.68;;;;;;;7.57;32.49;100452.13;5044575;28;20093;-71
2023/03/26 10:28:32;;;;;;;3.55;0.77;;;;;;;7.31;31.66;100464.22;5045410;28;20864;-72
2023/03/26 10:31:23;;;;;;;8.13;1.15;;;;;;;7.57;31.89;100455.59;5047803;28;20040;-71
2023/03/26 10:34:07;;;;;;;4.68;0.30;;;;;;;7.34;30.83;100461.53;5045124;28;20033;-73
2023/03/26 10:36:35;;;;;;;3.70;0.20;;;;;;;7.53;29.95;100448.75;5041708;28;20060;-71
2023/03/26 10:39:01;;;;;;;7.45;0.70;;;;;;;8.62;29.65;100446.59;5044058;28;20048;-72
2023/03/26 10:41:40;;;;;;;4.28;0.32;;;;;;;9.85;28.72;100445.06;5033876;28;20040;-71
2023/03/26 10:44:11;;;;;;;3.75;0.40;;;;;;;10.22;26.01;100441.66;5044577;28;20040;-72
2023/03/26 10:46:56;;;;;;;8.50;1.52;;;;;;;9.74;29.04;100453.31;5042032;28;20028;-71
2023/03/26 10:49:34;;;;;;;6.80;0.77;;;;;;;9.34;29.05;100454.16;5028602;28;20029;-71
2023/03/26 10:52:05;;;;;;;5.80;0.70;;;;;;;9.25;29.67;100455.38;5042513;28;20028;-72
2023/03/26 10:54:46;;;;;;;8.97;0.67;;;;;;;8.75;29.74;100461.72;5014181;28;20033;-71
2023/03/26 10:57:25;;;;;;;7.50;1.23;;;;;;;8.73;29.88;100458.31;5021523;28;20028;-72
2023/03/26 10:59:56;;;;;;;3.15;0.30;;;;;;;8.35;30.18;100464.97;5039958;28;20025;-72
2023/03/26 11:02:33;;;;;;;8.38;0.60;;;;;;;8.43;28.99;100462.94;5039919;28;20127;-71
2023/03/26 11:05:15;;;;;;;8.52;0.98;;;;;;;8.64;29.85;100460.41;5039427;28;20032;-71
2023/03/26 11:07:53;;;;;;;7.88;0.77;;;;;;;10.08;27.35;100453.63;5041163;28;20047;-72
2023/03/26 11:10:33;;;;;;;12.13;0.82;;;;;;;9.57;28.87;100461.03;5038341;28;20083;-71
2023/03/26 11:13:13;;;;;;;6.88;1.05;;;;;;;8.80;30.42;100458.94;5040041;28;20139;-70
2023/03/26 11:15:48;;;;;;;7.20;0.75;;;;;;;8.43;31.57;100464.69;5041874;28;20068;-69
2023/03/26 11:18:37;;;;;;;11.27;0.68;;;;;;;8.13;31.72;100465.72;5043249;28;21476;-71
2023/03/26 11:21:11;;;;;;;7.85;0.40;;;;;;;8.25;31.56;100474.00;5029579;28;20110;-71
2023/03/26 11:24:04;;;;;;;4.50;0.32;;;;;;;8.04;31.25;100471.28;5040238;28;20493;-70
2023/03/26 11:27:09;;;;;;;2.17;0.45;;;;;;;7.81;30.83;100479.91;5030524;28;20032;-70
2023/03/26 11:29:56;;;;;;;3.72;0.20;;;;;;;7.67;31.10;100480.38;5038755;28;20044;-72
2023/03/26 11:32:40;;;;;;;6.65;0.50;;;;;;;8.36;30.42;100480.53;5051257;28;20042;-70
2023/03/26 11:35:20;;;;;;;3.55;0.40;;;;;;;8.72;29.35;100476.63;5048847;28;20043;-70
2023/03/26 11:37:52;;;;;;;6.57;1.23;;;;;;;9.60;27.52;100472.19;5049724;28;20048;-70
2023/03/26 11:40:24;;;;;;;11.13;1.10;;;;;;;9.96;27.99;100470.69;5041410;28;20515;-70
2023/03/26 11:43:01;;;;;;;3.08;0.68;;;;;;;10.42;27.54;100474.72;5044164;28;20040;-70
2023/03/26 11:45:31;;;;;;;3.40;0.47;;;;;;;10.08;27.69;100477.13;5018483;28;20390;-70
2023/03/26 11:48:09;;;;;;;9.82;0.50;;;;;;;9.34;28.47;100481.09;5041491;28;20131;-70
2023/03/26 11:50:43;;;;;;;8.23;0.40;;;;;;;8.61;28.87;100479.63;5040897;28;20044;-73
2023/03/26 11:53:13;;;;;;;7.90;0.20;;;;;;;9.14;29.11;100483.66;5042444;28;20041;-73
2023/03/26 11:56:28;;;;;;;5.45;0.40;;;;;;;10.22;28.16;100477.38;5040000;28;20072;-70
2023/03/26 11:58:56;;;;;;;8.40;0.40;;;;;;;9.56;28.46;100480.19;5038320;28;20054;-70
2023/03/26 12:01:29;;;;;;;6.55;0.28;;;;;;;8.91;28.82;100485.41;5009120;28;20064;-73
2023/03/26 12:04:12;;;;;;;9.07;0.63;;;;;;;8.48;28.80;100494.00;5038535;28;20578;-72
2023/03/26 12:06:38;;;;;;;3.05;0.40;;;;;;;8.30;30.13;100491.16;5040039;28;20041;-72
2023/03/26 12:09:03;;;;;;;7.70;0.45;;;;;;;8.84;29.65;100490.94;5040069;28;20446;-70
2023/03/26 12:11:33;;;;;;;13.93;1.55;;;;;;;9.00;30.28;100483.38;5039692;28;20048;-72
2023/03/26 12:14:02;;;;;;;3.28;0.38;;;;;;;8.59;29.69;100488.41;5041171;28;20048;-72
2023/03/26 12:16:28;;;;;;;9.00;0.50;;;;;;;8.34;30.22;100499.72;5038997;28;20673;-70
2023/03/26 12:19:06;;;;;;;7.68;0.30;;;;;;;7.57;30.63;100494.59;5045412;28;20047;-71
2023/03/26 12:21:44;;;;;;;9.48;0.50;;;;;;;9.03;30.41;100493.66;5026519;28;20428;-70
2023/03/26 12:24:28;;;;;;;8.50;0.50;;;;;;;9.10;28.61;100497.75;5041614;28;20156;-71
2023/03/26 12:27:00;;;;;;;4.53;0.40;;;;;;;9.55;28.88;100500.22;5039232;28;20078;-70